Detall de PIREP

Printer-friendly versionPDF version

[2014/05/26 17:03:00]
Flight IATA:CT3115
Pilot Number:042
Company ICAO:CAT
Aircraft Type:F100/A
PAX:47
Aircraft Registration:PFJ
Departing Airport: LEVC
Destination Airport: LEBL
Alternate Airport:LEPA
Online: VATSIM
Route:TATOS A34 SAURA R60 MATEX
Flight Level:F240
No Slew and time accel
No pause
Crash detect
Detect pilot in Cockpit between each 30 and 45 minutes
17:03 Zero fuel Weight: 81824 Lbs, Fuel Weight: 13957 Lbs
17:03 VATSIM:LEVC 261630Z 08009KT 050V120 9999 FEW025 20/15 Q1017 NOSIG
17:03 VATSIM:LEBL 261630Z 19008KT 170V240 9999 FEW020TCU 18/13 Q1016 NOSIG
17:04 Parking Brakes off
17:08 Take-off
17:08 Take off Weight: 95375 Lbs
17:08 Wind: 000º @ 000 Knots Heading: 115º
17:08 POS N39º 29´ 22´´ W000º 28´ 57´´
17:08 Gear Up: 174 Knots
17:08 Flaps:2 at 174 Knots
17:08 Flaps:1 at 191 Knots
17:08 Flaps:0 at 211 Knots
17:19 TOC
17:19 Fuel Weight: 11902 Lb
17:23 Wind:270º@025 Knots Heading: 048º Ground Speed: 460 Knots Altitude 23996 ft
17:26 TOD
17:26 Fuel Weight: 11184 Lb
17:38 Wind:000º@000 Knots Heading: 023º Ground Speed: 238 Knots Altitude 3061 ft
17:38 Flaps:1 at 226 Knots
17:38 Flaps:2 at 219 Knots
17:39 Gear Down: 191 Knots
17:39 Flaps:3 at 190 Knots
17:42 TouchDown:Rate -200 ft/min Speed: 155 Knots
17:42 VATSIM:LEBL 261730Z 13004KT 060V210 9999 FEW020TCU 18/13 Q1017 NOSIG
17:42 Land
17:42 Wind:000º@000 Knots
17:42 Heading: 065º
17:42 Flight Duration: 00:34
17:42 Landing Weight: 92234 Lbs
17:42 POS N41º 17´ 13´´ E002º 05´ 17´´
17:44 Parking brakes on
17:44 Block to Block Duration: 00:40
17:44 Final Fuel: 10251 Lbls
17:44 Spent Fuel: 3705 Lbls
17:44 Flight Length: 188 NM
17:44 TOD Land Length: 75 NM

Exportar CSV

Powered by Drupal - Modified by Danger4k